createdAt,value
2018-08-04T00:01:59.951Z,4.27
2018-08-04T00:04:28.516Z,4.30
2018-08-04T00:06:57.293Z,4.13
2018-08-04T00:09:26.527Z,5.10
2018-08-04T00:11:55.165Z,7.17
2018-08-04T00:14:23.463Z,5.73
2018-08-04T00:16:52.899Z,4.20
2018-08-04T00:19:22.423Z,5.57
2018-08-04T00:21:51.057Z,5.97
2018-08-04T00:24:19.899Z,5.50
2018-08-04T00:26:48.938Z,5.40
2018-08-04T00:29:17.665Z,6.10
2018-08-04T00:31:47.147Z,5.70
2018-08-04T00:34:15.735Z,5.80
2018-08-04T00:36:44.577Z,5.97
2018-08-04T00:39:13.481Z,4.47
2018-08-04T00:41:42.896Z,6.33
2018-08-04T00:44:11.501Z,8.00
2018-08-04T00:46:41.105Z,6.97
2018-08-04T00:49:09.784Z,7.60
2018-08-04T00:51:39.379Z,7.47
2018-08-04T00:54:08.181Z,7.63
2018-08-04T00:56:36.981Z,8.37
2018-08-04T00:59:06.321Z,7.63
2018-08-04T01:01:35.055Z,6.23
2018-08-04T01:04:04.029Z,5.50
2018-08-04T01:06:32.906Z,5.83
2018-08-04T01:09:01.464Z,6.03
2018-08-04T01:11:30.364Z,6.60
2018-08-04T01:13:59.176Z,6.37
2018-08-04T01:16:27.890Z,5.53
2018-08-04T01:18:56.458Z,6.03
2018-08-04T01:21:25.032Z,8.67
2018-08-04T01:23:54.034Z,8.83
2018-08-04T01:26:22.640Z,8.60
2018-08-04T01:28:51.392Z,8.47
2018-08-04T01:31:20.010Z,8.43
2018-08-04T01:33:48.656Z,8.90
2018-08-04T01:36:17.232Z,7.23
2018-08-04T01:38:46.084Z,7.33
2018-08-04T01:41:14.800Z,7.57
2018-08-04T01:43:44.294Z,7.57
2018-08-04T01:46:13.046Z,7.40
2018-08-04T01:48:41.871Z,7.13
2018-08-04T01:51:10.500Z,9.43
2018-08-04T01:53:39.761Z,8.20
2018-08-04T01:56:09.981Z,6.63
2018-08-04T01:58:38.556Z,7.30
2018-08-04T02:01:07.226Z,7.03
2018-08-04T02:03:36.524Z,7.50
2018-08-04T02:06:05.032Z,8.03
2018-08-04T02:08:33.896Z,9.43
2018-08-04T02:11:02.327Z,7.43
2018-08-04T02:13:31.066Z,6.80
2018-08-04T02:15:59.654Z,6.80
2018-08-04T02:18:28.971Z,10.17
2018-08-04T02:20:57.701Z,10.73
2018-08-04T02:23:26.374Z,10.10
2018-08-04T02:25:55.037Z,7.60
2018-08-04T02:28:23.721Z,9.40
2018-08-04T02:30:52.723Z,9.53
2018-08-04T02:33:21.704Z,9.37
2018-08-04T02:35:50.692Z,12.33
2018-08-04T02:38:19.493Z,10.67
2018-08-04T02:40:48.377Z,9.40
2018-08-04T02:43:16.980Z,10.30
2018-08-04T02:45:46.395Z,9.93
2018-08-04T02:48:14.950Z,10.47
2018-08-04T02:50:44.059Z,12.83
2018-08-04T02:53:12.669Z,12.93
2018-08-04T02:55:41.294Z,11.40
2018-08-04T02:58:10.201Z,13.77
2018-08-04T03:00:38.831Z,12.53
2018-08-04T03:03:07.748Z,11.27
2018-08-04T03:05:36.339Z,11.33
2018-08-04T03:08:05.105Z,9.23
2018-08-04T03:10:34.010Z,11.60
2018-08-04T03:13:02.611Z,11.00
2018-08-04T03:15:31.812Z,12.17
2018-08-04T03:18:00.406Z,11.03
2018-08-04T03:20:29.278Z,10.97
2018-08-04T03:22:58.650Z,10.70
2018-08-04T03:25:28.015Z,10.20
2018-08-04T03:27:56.750Z,11.73
2018-08-04T03:30:25.526Z,9.87
2018-08-04T03:32:54.252Z,9.47
2018-08-04T03:35:23.624Z,10.00
2018-08-04T03:37:52.291Z,10.00
2018-08-04T03:40:21.022Z,10.80
2018-08-04T03:42:49.928Z,9.53
2018-08-04T03:45:18.517Z,8.77
2018-08-04T03:47:47.143Z,10.07
2018-08-04T03:50:15.833Z,9.90
2018-08-04T03:52:44.781Z,9.23
2018-08-04T03:55:13.317Z,8.50
2018-08-04T03:57:42.227Z,9.93
2018-08-04T04:00:11.112Z,8.60
2018-08-04T04:02:39.929Z,9.17
2018-08-04T04:05:08.724Z,10.90
2018-08-04T04:07:37.543Z,9.00
2018-08-04T04:10:06.301Z,9.77
2018-08-04T04:12:35.209Z,10.93
2018-08-04T04:15:04.527Z,11.50
2018-08-04T04:17:38.425Z,10.37
2018-08-04T04:20:08.027Z,9.63
2018-08-04T04:22:36.749Z,10.03
2018-08-04T04:25:05.789Z,9.93
2018-08-04T04:27:34.695Z,11.00
2018-08-04T04:30:03.667Z,9.23
2018-08-04T04:32:32.267Z,9.13
2018-08-04T04:35:02.169Z,10.13
2018-08-04T04:37:30.955Z,11.50
2018-08-04T04:39:59.813Z,11.93
2018-08-04T04:42:28.623Z,11.63
2018-08-04T04:44:59.341Z,9.03
2018-08-04T04:47:28.031Z,11.70
2018-08-04T04:49:56.620Z,9.70
2018-08-04T04:52:25.287Z,9.93
2018-08-04T04:54:53.907Z,11.03
2018-08-04T04:57:22.527Z,9.00
2018-08-04T04:59:51.567Z,13.33
2018-08-04T05:02:20.443Z,10.60
2018-08-04T05:04:49.741Z,10.73
2018-08-04T05:07:19.167Z,13.60
2018-08-04T05:09:47.850Z,13.50
2018-08-04T05:12:17.115Z,9.63
2018-08-04T05:14:45.732Z,13.53
2018-08-04T05:17:14.502Z,10.07
2018-08-04T05:19:43.089Z,10.57
2018-08-04T05:22:11.707Z,13.30
2018-08-04T05:24:40.314Z,10.13
2018-08-04T05:27:09.289Z,10.77
2018-08-04T05:29:38.273Z,10.13
2018-08-04T05:32:06.987Z,12.37
2018-08-04T05:34:36.170Z,14.03
2018-08-04T05:37:05.338Z,13.20
2018-08-04T05:39:34.431Z,11.00
2018-08-04T05:42:03.041Z,11.03
2018-08-04T05:44:31.977Z,10.40
2018-08-04T05:47:00.609Z,9.63
2018-08-04T05:49:29.255Z,10.87
2018-08-04T05:51:58.550Z,11.70
2018-08-04T05:54:27.134Z,9.83
2018-08-04T05:56:56.106Z,9.20
2018-08-04T05:59:25.193Z,13.30
2018-08-04T06:01:53.460Z,12.53
2018-08-04T06:04:22.369Z,12.00
2018-08-04T06:06:51.297Z,9.50
2018-08-04T06:09:19.891Z,11.10
2018-08-04T06:11:49.698Z,11.30
2018-08-04T06:14:18.428Z,15.63
2018-08-04T06:16:47.800Z,13.73
2018-08-04T06:19:16.448Z,11.07
2018-08-04T06:21:45.107Z,11.00
2018-08-04T06:24:13.958Z,10.50
2018-08-04T06:26:42.540Z,11.70
2018-08-04T06:29:11.410Z,10.83
2018-08-04T06:31:40.043Z,13.37
2018-08-04T06:34:08.790Z,13.80
2018-08-04T06:36:37.999Z,12.10
2018-08-04T06:39:06.967Z,11.00
2018-08-04T06:41:35.737Z,10.60
2018-08-04T06:44:04.570Z,10.97
2018-08-04T06:46:33.727Z,10.83
2018-08-04T06:49:02.559Z,11.57
2018-08-04T06:51:31.263Z,9.50
2018-08-04T06:54:00.070Z,11.90
2018-08-04T06:56:28.900Z,11.70
2018-08-04T06:58:57.742Z,10.50
2018-08-04T07:01:27.050Z,10.50
2018-08-04T07:23:24.741Z,8.03
2018-08-04T07:25:53.568Z,8.17
2018-08-04T07:28:22.335Z,9.10
2018-08-04T07:30:50.755Z,7.17
2018-08-04T07:33:19.656Z,6.73
2018-08-04T07:35:48.479Z,6.23
2018-08-04T07:38:17.078Z,5.83
2018-08-04T07:40:46.508Z,5.13
2018-08-04T07:43:16.097Z,5.43
2018-08-04T07:45:44.900Z,5.30
2018-08-04T07:48:13.527Z,4.97
2018-08-04T07:50:42.714Z,4.63
2018-08-04T07:53:11.905Z,6.07
2018-08-04T07:55:41.211Z,4.97
2018-08-04T07:58:09.793Z,7.27
2018-08-04T08:00:38.745Z,3.80
2018-08-04T08:03:07.375Z,4.00
2018-08-04T08:05:36.046Z,3.47
2018-08-04T08:08:05.295Z,5.57
2018-08-04T08:10:34.020Z,3.00
2018-08-04T08:13:02.783Z,3.33
2018-08-04T08:15:32.029Z,3.73
2018-08-04T08:18:00.244Z,4.13
2018-08-04T08:20:28.878Z,3.47
2018-08-04T08:22:57.510Z,4.20
2018-08-04T08:25:26.354Z,4.07
2018-08-04T08:27:55.746Z,3.20
2018-08-04T08:30:26.581Z,3.57
2018-08-04T08:32:55.284Z,2.80
2018-08-04T08:35:23.889Z,4.07
2018-08-04T08:37:52.652Z,3.60
2018-08-04T08:40:22.383Z,4.17
2018-08-04T08:42:51.915Z,3.23
2018-08-04T08:45:20.778Z,3.03
2018-08-04T08:47:49.393Z,2.93
2018-08-04T08:50:18.002Z,3.43
2018-08-04T08:52:47.197Z,3.20
2018-08-04T08:55:15.856Z,2.80
2018-08-04T08:57:44.747Z,2.77
2018-08-04T09:00:13.601Z,3.90
2018-08-04T09:02:42.400Z,2.60
2018-08-04T09:05:11.442Z,2.73
2018-08-04T09:07:40.468Z,5.60
2018-08-04T09:10:11.860Z,2.63
2018-08-04T09:12:41.191Z,2.37
2018-08-04T09:15:10.165Z,2.50
2018-08-04T09:17:39.031Z,2.50
2018-08-04T09:20:09.397Z,3.00
2018-08-04T09:22:38.032Z,2.20
2018-08-04T09:25:07.343Z,3.03
2018-08-04T09:27:36.067Z,2.20
2018-08-04T09:30:06.892Z,2.40
2018-08-04T09:32:35.738Z,3.00
2018-08-04T09:35:04.841Z,1.90
2018-08-04T09:37:33.796Z,2.90
2018-08-04T09:40:02.530Z,1.80
2018-08-04T09:42:31.442Z,2.30
2018-08-04T09:45:01.014Z,2.50
2018-08-04T09:47:30.030Z,2.63
2018-08-04T09:50:00.638Z,3.20
2018-08-04T09:53:32.151Z,4.67
2018-08-04T09:56:00.427Z,4.50
2018-08-04T09:58:29.131Z,5.47
2018-08-04T10:01:02.981Z,3.50
2018-08-04T10:03:31.847Z,4.93
2018-08-04T10:06:00.583Z,5.50
2018-08-04T10:08:29.023Z,3.53
2018-08-04T10:10:58.055Z,3.23
2018-08-04T10:13:26.778Z,4.70
2018-08-04T10:15:55.704Z,3.43
2018-08-04T10:18:24.721Z,3.23
2018-08-04T10:20:53.434Z,4.87
2018-08-04T10:23:22.017Z,3.27
2018-08-04T10:25:50.909Z,4.83
2018-08-04T10:28:19.514Z,4.30
2018-08-04T10:30:49.322Z,5.57
2018-08-04T10:33:18.006Z,6.47
2018-08-04T10:35:48.286Z,5.17
2018-08-04T10:38:16.852Z,5.57
2018-08-04T10:40:46.189Z,6.27
2018-08-04T10:43:14.865Z,5.33
2018-08-04T10:45:43.472Z,5.87
2018-08-04T10:48:12.406Z,4.77
2018-08-04T10:50:41.182Z,5.17
2018-08-04T10:53:09.762Z,4.97
2018-08-04T10:55:38.445Z,4.40
2018-08-04T10:58:08.354Z,6.20
2018-08-04T11:00:37.682Z,6.30
2018-08-04T11:03:06.649Z,7.27
2018-08-04T11:05:36.200Z,4.53
2018-08-04T11:08:04.471Z,6.00
2018-08-04T11:10:33.134Z,5.03
2018-08-04T11:13:02.270Z,3.53
2018-08-04T11:15:30.963Z,3.43
2018-08-04T11:17:59.615Z,4.00
2018-08-04T11:20:27.934Z,4.33
2018-08-04T11:22:57.646Z,3.80
2018-08-04T11:25:26.341Z,3.33
2018-08-04T11:27:55.787Z,3.97
2018-08-04T11:30:24.642Z,4.93
2018-08-04T11:32:53.460Z,2.90
2018-08-04T11:35:22.458Z,4.63
2018-08-04T11:37:51.288Z,5.13
2018-08-04T11:40:20.417Z,4.30
2018-08-04T11:42:49.530Z,4.20
2018-08-04T11:45:17.859Z,4.50
2018-08-04T11:47:47.119Z,6.10
2018-08-04T11:50:15.675Z,3.37
2018-08-04T11:52:44.302Z,5.67
2018-08-04T11:55:12.976Z,4.27
2018-08-04T11:57:41.600Z,3.97
2018-08-04T12:00:10.564Z,2.90
2018-08-04T12:02:39.669Z,5.90
2018-08-04T12:05:09.492Z,4.47
2018-08-04T12:07:38.520Z,6.03
2018-08-04T12:10:07.784Z,6.10
2018-08-04T12:12:36.480Z,3.30
2018-08-04T12:15:05.312Z,3.70
2018-08-04T12:17:34.094Z,5.90
2018-08-04T12:20:02.744Z,3.93
2018-08-04T12:22:32.086Z,5.57
2018-08-04T12:25:01.088Z,5.40
2018-08-04T12:27:30.426Z,4.20
2018-08-04T12:29:59.037Z,9.13
2018-08-04T12:32:27.858Z,7.60
2018-08-04T12:34:56.452Z,5.23
2018-08-04T12:37:25.966Z,5.37
2018-08-04T12:39:54.760Z,6.87
2018-08-04T12:42:23.438Z,4.37
2018-08-04T12:44:52.089Z,6.30
2018-08-04T12:47:20.457Z,4.67
2018-08-04T12:49:49.177Z,3.50
2018-08-04T12:52:18.355Z,5.07
2018-08-04T12:54:47.512Z,5.73
2018-08-04T12:57:16.178Z,4.67
2018-08-04T12:59:45.044Z,4.83
2018-08-04T13:02:13.733Z,4.10
2018-08-04T13:04:42.692Z,5.30
2018-08-04T13:07:11.680Z,5.47
2018-08-04T13:09:41.264Z,5.33
2018-08-04T13:12:11.313Z,6.00
2018-08-04T13:14:40.193Z,6.27
2018-08-04T13:17:09.123Z,4.50
2018-08-04T13:19:37.927Z,5.57
2018-08-04T13:22:06.944Z,4.33
2018-08-04T13:24:36.419Z,3.33
2018-08-04T13:27:05.916Z,4.17
2018-08-04T13:29:34.709Z,6.50
2018-08-04T13:32:03.554Z,8.53
2018-08-04T13:34:32.568Z,6.77
2018-08-04T13:37:01.502Z,5.53
2018-08-04T13:39:30.168Z,4.80
2018-08-04T13:41:59.784Z,6.37
2018-08-04T13:44:28.652Z,8.00
2018-08-04T13:46:57.413Z,6.70
2018-08-04T13:49:26.029Z,4.73
2018-08-04T13:51:54.966Z,5.80
2018-08-04T13:54:24.901Z,8.53
2018-08-04T13:56:54.513Z,8.33
2018-08-04T13:59:23.971Z,4.50
2018-08-04T14:01:52.961Z,6.13
2018-08-04T14:04:21.745Z,6.03
2018-08-04T14:06:50.593Z,4.73
2018-08-04T14:09:20.503Z,8.03
2018-08-04T14:11:50.753Z,7.87
2018-08-04T14:14:19.485Z,5.73
2018-08-04T14:16:48.399Z,6.90
2018-08-04T14:19:17.300Z,7.27
2018-08-04T14:21:46.289Z,7.20
2018-08-04T14:24:16.333Z,6.37
2018-08-04T14:26:45.000Z,5.63
2018-08-04T14:29:13.909Z,9.27
2018-08-04T14:31:43.878Z,7.83
2018-08-04T14:34:12.781Z,6.80
2018-08-04T14:36:42.477Z,8.20
2018-08-04T14:39:13.072Z,10.13
2018-08-04T14:41:42.657Z,13.90
2018-08-04T14:44:11.652Z,12.07
2018-08-04T14:46:40.502Z,12.83
2018-08-04T14:49:09.616Z,14.80
2018-08-04T14:51:38.982Z,12.97
2018-08-04T14:54:08.139Z,11.80
2018-08-04T14:56:37.915Z,10.43
2018-08-04T14:59:07.156Z,11.37
2018-08-04T15:01:36.355Z,12.23
2018-08-04T15:04:05.339Z,10.50
2018-08-04T15:06:33.988Z,12.40
2018-08-04T15:09:03.900Z,12.47
2018-08-04T15:11:33.686Z,9.37
2018-08-04T15:14:02.790Z,8.27
2018-08-04T15:16:31.850Z,10.20
2018-08-04T15:19:00.910Z,9.07
2018-08-04T15:21:29.741Z,9.80
2018-08-04T15:23:58.300Z,7.83
2018-08-04T15:26:28.272Z,12.17
2018-08-04T15:28:57.712Z,8.20
2018-08-04T15:31:26.835Z,10.70
2018-08-04T15:33:55.902Z,8.53
2018-08-04T15:36:24.733Z,9.57
2018-08-04T15:38:53.401Z,9.23
2018-08-04T15:41:22.011Z,7.47
2018-08-04T15:43:51.495Z,8.87
2018-08-04T15:46:20.897Z,10.90
2018-08-04T15:48:49.532Z,12.57
2018-08-04T15:51:19.024Z,10.33
2018-08-04T15:53:48.065Z,9.40
2018-08-04T15:56:18.643Z,7.13
2018-08-04T15:58:47.772Z,11.03
2018-08-04T16:01:16.604Z,9.73
2018-08-04T16:03:45.961Z,10.70
2018-08-04T16:06:14.651Z,9.00
2018-08-04T16:08:43.521Z,10.43
2018-08-04T16:11:12.593Z,7.33
2018-08-04T16:13:41.271Z,7.17
2018-08-04T16:16:09.883Z,4.77
2018-08-04T16:18:38.778Z,8.73
2018-08-04T16:21:08.005Z,6.87
2018-08-04T16:23:36.721Z,8.10
2018-08-04T16:26:05.464Z,10.17
2018-08-04T16:28:34.080Z,7.90
2018-08-04T16:31:03.020Z,11.47
2018-08-04T16:33:32.085Z,8.07
2018-08-04T16:36:00.733Z,8.53
2018-08-04T16:38:30.354Z,8.33
2018-08-04T16:40:59.232Z,8.37
2018-08-04T16:43:28.297Z,5.83
2018-08-04T16:45:56.870Z,6.93
2018-08-04T16:48:25.887Z,7.37
2018-08-04T16:50:55.042Z,8.03
2018-08-04T16:53:23.464Z,5.53
2018-08-04T16:55:52.888Z,5.37
2018-08-04T16:58:21.959Z,4.83
2018-08-04T17:00:51.158Z,6.90
2018-08-04T17:03:19.987Z,5.17
2018-08-04T17:05:49.574Z,7.20
2018-08-04T17:08:19.631Z,7.13
2018-08-04T17:10:48.579Z,7.83
2018-08-04T17:13:17.276Z,5.37
2018-08-04T17:15:46.140Z,5.67
2018-08-04T17:18:15.187Z,5.00
2018-08-04T17:20:44.236Z,4.27
2018-08-04T17:23:13.532Z,5.93
2018-08-04T17:25:42.302Z,7.00
2018-08-04T17:28:11.546Z,6.63
2018-08-04T17:30:41.186Z,5.67
2018-08-04T17:33:09.997Z,4.53
2018-08-04T17:35:39.679Z,6.50
2018-08-04T17:38:08.795Z,5.43
2018-08-04T17:40:37.623Z,5.20
2018-08-04T17:43:06.979Z,6.73
2018-08-04T17:45:35.675Z,6.90
2018-08-04T17:48:04.541Z,6.20
2018-08-04T17:50:33.177Z,4.57
2018-08-04T17:53:02.429Z,7.77
2018-08-04T17:55:31.305Z,4.13
2018-08-04T17:58:00.318Z,6.10
2018-08-04T18:00:29.139Z,6.10
2018-08-04T18:02:57.767Z,5.50
2018-08-04T18:05:27.723Z,6.97
2018-08-04T18:07:56.733Z,4.73
2018-08-04T18:10:25.585Z,6.13
2018-08-04T18:12:55.469Z,6.10
2018-08-04T18:15:24.613Z,5.13
2018-08-04T18:17:53.330Z,4.00
2018-08-04T18:20:21.990Z,4.83
2018-08-04T18:22:51.957Z,4.93
2018-08-04T18:25:20.543Z,9.03
2018-08-04T18:27:49.344Z,4.97
2018-08-04T18:30:17.961Z,6.57
2018-08-04T18:32:46.639Z,5.03
2018-08-04T18:35:15.525Z,4.00
2018-08-04T18:37:44.156Z,5.87
2018-08-04T18:40:12.699Z,5.73
2018-08-04T18:42:41.361Z,5.87
2018-08-04T18:45:09.908Z,4.27
2018-08-04T18:47:38.822Z,4.07
2018-08-04T18:50:07.513Z,5.57
2018-08-04T18:52:36.083Z,4.83
2018-08-04T18:55:04.653Z,6.77
2018-08-04T18:57:33.202Z,5.67
2018-08-04T19:00:01.833Z,6.00
2018-08-04T19:02:31.110Z,7.57
2018-08-04T19:04:59.714Z,6.03
2018-08-04T19:07:28.330Z,5.03
2018-08-04T19:09:57.551Z,8.67
2018-08-04T19:12:26.112Z,4.47
2018-08-04T19:14:54.676Z,5.93
2018-08-04T19:17:24.020Z,5.50
2018-08-04T19:19:52.881Z,6.80
2018-08-04T19:22:21.550Z,6.53
2018-08-04T19:24:51.660Z,5.63
2018-08-04T19:27:20.291Z,8.13
2018-08-04T19:29:49.347Z,6.40
2018-08-04T19:32:18.480Z,5.43
2018-08-04T19:34:47.105Z,6.63
2018-08-04T19:37:15.707Z,6.37
2018-08-04T19:39:44.354Z,6.53
2018-08-04T19:42:13.194Z,5.57
2018-08-04T19:44:41.810Z,7.80
2018-08-04T19:47:10.088Z,6.93
2018-08-04T19:49:38.903Z,9.93
2018-08-04T19:52:08.032Z,8.33
2018-08-04T19:54:36.717Z,6.63
2018-08-04T19:57:05.964Z,8.93
2018-08-04T19:59:34.732Z,8.47
2018-08-04T20:02:03.727Z,7.60
2018-08-04T20:04:32.585Z,6.00
2018-08-04T20:07:01.610Z,8.17
2018-08-04T20:09:30.414Z,6.50
2018-08-04T20:11:59.233Z,6.23
2018-08-04T20:14:28.198Z,5.17
2018-08-04T20:16:57.097Z,7.20
2018-08-04T20:19:26.390Z,7.60
2018-08-04T20:21:55.441Z,8.33
2018-08-04T20:24:24.091Z,6.17
2018-08-04T20:26:52.772Z,6.33
2018-08-04T20:29:22.382Z,6.37
2018-08-04T20:31:51.026Z,8.17
2018-08-04T20:34:19.704Z,6.37
2018-08-04T20:36:48.849Z,6.67
2018-08-04T20:39:17.693Z,7.43
2018-08-04T20:41:46.797Z,7.67
2018-08-04T20:44:15.560Z,6.63
2018-08-04T20:46:44.256Z,5.80
2018-08-04T20:49:12.883Z,5.97
2018-08-04T20:51:41.534Z,5.63
2018-08-04T20:54:10.556Z,5.80
2018-08-04T20:56:39.230Z,7.27
2018-08-04T20:59:08.084Z,8.07
2018-08-04T21:01:46.945Z,5.57
2018-08-04T21:04:15.596Z,7.07
2018-08-04T21:06:44.243Z,7.47
2018-08-04T21:09:13.218Z,6.97
2018-08-04T21:11:47.289Z,6.80
2018-08-04T21:14:15.868Z,9.43
2018-08-04T21:16:44.582Z,4.90
2018-08-04T21:19:13.449Z,7.23
2018-08-04T21:21:42.128Z,7.43
2018-08-04T21:24:11.668Z,6.97
2018-08-04T21:26:40.549Z,7.20
2018-08-04T21:29:09.110Z,8.73
2018-08-04T21:31:37.712Z,6.67
2018-08-04T21:34:06.472Z,7.20
2018-08-04T21:36:35.327Z,7.57
2018-08-04T21:39:04.157Z,7.60
2018-08-04T21:41:33.174Z,6.50
2018-08-04T21:44:01.765Z,6.10
2018-08-04T21:46:30.385Z,4.93
2018-08-04T21:48:59.018Z,6.20
2018-08-04T21:51:27.890Z,7.27
2018-08-04T21:53:57.731Z,9.97
2018-08-04T21:56:26.372Z,8.43
2018-08-04T21:58:54.966Z,6.47
2018-08-04T22:01:24.207Z,6.43
2018-08-04T22:03:53.174Z,8.57
2018-08-04T22:06:23.435Z,6.40
2018-08-04T22:09:03.219Z,6.70
2018-08-04T22:11:31.940Z,5.07
2018-08-04T22:14:00.621Z,7.03
2018-08-04T22:16:29.275Z,5.43
2018-08-04T22:18:57.858Z,4.70
2018-08-04T22:21:26.609Z,7.50
2018-08-04T22:23:55.160Z,6.43
2018-08-04T22:26:23.755Z,4.43
2018-08-04T22:28:52.362Z,4.97
2018-08-04T22:31:20.913Z,6.40
2018-08-04T22:33:49.242Z,5.00
2018-08-04T22:36:18.097Z,6.53
2018-08-04T22:38:46.854Z,4.40
2018-08-04T22:41:15.938Z,5.63
2018-08-04T22:43:44.828Z,5.00
2018-08-04T22:46:15.281Z,7.43
2018-08-04T22:48:45.210Z,6.47
2018-08-04T22:51:13.866Z,6.17
2018-08-04T22:53:42.578Z,4.23
2018-08-04T22:56:11.194Z,4.20
2018-08-04T22:58:40.828Z,5.30
2018-08-04T23:01:09.624Z,6.07
2018-08-04T23:03:38.476Z,4.27
2018-08-04T23:06:07.060Z,4.87
2018-08-04T23:08:36.054Z,4.33
2018-08-04T23:11:04.830Z,6.10
2018-08-04T23:13:34.435Z,5.07
2018-08-04T23:16:03.630Z,4.93
2018-08-04T23:18:32.474Z,5.60
2018-08-04T23:21:02.525Z,4.30
2018-08-04T23:23:32.105Z,5.13
2018-08-04T23:26:01.039Z,5.00
2018-08-04T23:28:29.931Z,3.67
2018-08-04T23:30:58.685Z,3.53
2018-08-04T23:33:27.249Z,5.40
2018-08-04T23:35:55.827Z,3.57
2018-08-04T23:38:24.175Z,6.90
2018-08-04T23:40:52.928Z,3.27
2018-08-04T23:43:22.761Z,5.70
2018-08-04T23:45:51.659Z,3.67
2018-08-04T23:48:20.852Z,4.83
2018-08-04T23:50:49.534Z,5.03
2018-08-04T23:53:19.186Z,4.37
2018-08-04T23:55:48.106Z,4.17
2018-08-04T23:58:17.121Z,5.00
